Time;durP1;ratioP1;P1;durP2;ratioP2;P2;SDS_P1;SDS_P2;PMS_P1;PMS_P2;Temp;Humidity;BMP_temperature;BMP_pressure;BME280_temperature;BME280_humidity;BME280_pressure;Samples;Min_cycle;Max_cycle;Signal;HPM_P1;HPM_P2
2022/06/25 00:00:24;;;;;;;21.50;19.30;;;18.70;99.90;;;;;;5072990;28;20433;-47
2022/06/25 00:02:50;;;;;;;21.98;19.90;;;18.50;99.90;;;;;;5072929;28;20087;-48
2022/06/25 00:05:27;;;;;;;22.88;20.48;;;18.60;99.90;;;;;;5073029;28;20036;-48
2022/06/25 00:07:54;;;;;;;21.90;19.65;;;18.60;99.90;;;;;;5073144;28;20043;-49
2022/06/25 00:10:19;;;;;;;23.98;20.77;;;18.60;99.90;;;;;;5072873;28;20048;-47
2022/06/25 00:12:45;;;;;;;21.35;19.45;;;18.50;99.90;;;;;;5072985;28;20042;-47
2022/06/25 00:15:11;;;;;;;24.25;21.55;;;18.50;99.90;;;;;;5073060;28;20039;-48
2022/06/25 00:17:36;;;;;;;23.83;21.50;;;18.40;99.90;;;;;;5073060;28;20032;-49
2022/06/25 00:20:04;;;;;;;22.85;20.50;;;18.60;99.90;;;;;;5072681;28;20493;-47
2022/06/25 00:22:30;;;;;;;23.48;21.27;;;18.40;99.90;;;;;;5072785;28;20040;-48
2022/06/25 00:24:56;;;;;;;27.30;22.40;;;18.60;99.90;;;;;;5072672;28;20543;-48
2022/06/25 00:27:22;;;;;;;28.02;25.00;;;18.50;99.90;;;;;;5072661;28;20048;-47
2022/06/25 00:29:48;;;;;;;24.75;22.15;;;18.50;99.90;;;;;;5072330;28;20056;-47
2022/06/25 00:32:14;;;;;;;26.77;24.10;;;18.40;99.90;;;;;;5072693;28;20479;-47
2022/06/25 00:34:39;;;;;;;26.65;24.25;;;18.40;99.90;;;;;;5072395;28;20036;-53
2022/06/25 00:37:07;;;;;;;29.35;25.92;;;18.40;99.90;;;;;;5072349;28;20085;-48
2022/06/25 00:39:33;;;;;;;27.02;24.33;;;18.40;99.90;;;;;;5072533;28;20040;-48
2022/06/25 00:41:59;;;;;;;27.88;25.08;;;18.30;99.90;;;;;;5072443;28;20116;-47
2022/06/25 00:44:28;;;;;;;27.00;24.35;;;18.30;99.90;;;;;;5072182;28;20048;-48
2022/06/25 00:46:54;;;;;;;24.23;21.83;;;18.30;99.90;;;;;;5071089;28;20081;-45
2022/06/25 00:49:20;;;;;;;26.58;23.90;;;18.30;99.90;;;;;;5072465;28;20123;-47
2022/06/25 00:51:49;;;;;;;29.00;25.95;;;18.30;99.90;;;;;;5072352;28;20067;-48
2022/06/25 00:54:16;;;;;;;27.60;25.00;;;18.20;99.90;;;;;;5071607;28;20036;-48
2022/06/25 00:56:49;;;;;;;28.38;25.50;;;18.20;99.90;;;;;;5072111;28;20545;-46
2022/06/25 00:59:16;;;;;;;28.10;25.45;;;18.20;99.90;;;;;;5070735;28;20496;-47
2022/06/25 01:01:42;;;;;;;27.10;24.38;;;18.20;99.90;;;;;;5072205;28;20494;-49
2022/06/25 01:04:08;;;;;;;28.75;26.15;;;18.10;99.90;;;;;;5072018;28;20048;-50
2022/06/25 01:06:34;;;;;;;27.80;25.17;;;18.20;99.90;;;;;;5072297;28;20048;-47
2022/06/25 01:09:00;;;;;;;26.60;24.15;;;18.10;99.90;;;;;;5072071;28;20043;-47
2022/06/25 01:11:26;;;;;;;38.88;25.52;;;18.20;99.90;;;;;;5071935;28;20037;-51
2022/06/25 01:13:52;;;;;;;26.42;23.83;;;18.20;99.90;;;;;;5072070;28;20033;-50
2022/06/25 01:16:19;;;;;;;28.83;25.92;;;18.10;99.90;;;;;;5071840;28;20532;-47
2022/06/25 01:18:47;;;;;;;27.70;24.95;;;18.20;99.90;;;;;;5071680;28;20073;-48
2022/06/25 01:21:13;;;;;;;25.95;23.20;;;18.20;99.90;;;;;;5072234;28;20077;-47
2022/06/25 01:23:40;;;;;;;25.52;22.92;;;18.10;99.90;;;;;;5071752;28;20492;-50
2022/06/25 01:26:05;;;;;;;29.23;26.10;;;18.20;99.90;;;;;;5071929;28;20072;-51
2022/06/25 01:28:31;;;;;;;31.42;24.27;;;18.10;99.90;;;;;;5071785;28;20082;-51
2022/06/25 01:30:57;;;;;;;28.70;25.77;;;18.00;99.90;;;;;;5071750;28;20049;-50
2022/06/25 01:33:22;;;;;;;28.88;25.95;;;17.90;99.90;;;;;;5071850;28;20076;-49
2022/06/25 01:35:48;;;;;;;27.35;24.75;;;17.80;99.90;;;;;;5071875;28;20052;-49
2022/06/25 01:38:14;;;;;;;27.40;24.55;;;18.00;99.90;;;;;;5071785;28;20040;-47
2022/06/25 01:40:39;;;;;;;25.70;23.42;;;17.90;99.90;;;;;;5071786;28;20076;-47
2022/06/25 01:43:05;;;;;;;25.15;22.55;;;17.90;99.90;;;;;;5072017;28;20105;-50
2022/06/25 01:45:36;;;;;;;24.50;21.95;;;18.00;99.90;;;;;;5070446;28;20115;-51
2022/06/25 01:48:03;;;;;;;27.15;24.48;;;17.80;99.90;;;;;;5072185;28;20499;-47
2022/06/25 01:50:30;;;;;;;29.30;26.10;;;17.90;99.90;;;;;;5071721;28;20040;-51
2022/06/25 01:52:56;;;;;;;23.50;21.02;;;17.80;99.90;;;;;;5071786;28;20033;-47
2022/06/25 01:55:21;;;;;;;24.00;21.52;;;17.90;99.90;;;;;;5072056;28;20171;-45
2022/06/25 01:57:48;;;;;;;22.13;19.58;;;17.90;99.90;;;;;;5071758;28;20063;-51
2022/06/25 02:00:18;;;;;;;25.50;22.55;;;17.90;99.90;;;;;;5071656;28;20388;-47
2022/06/25 02:02:44;;;;;;;20.02;18.23;;;17.80;99.90;;;;;;5071884;28;20040;-48
2022/06/25 02:05:12;;;;;;;21.40;19.25;;;17.80;99.90;;;;;;5072396;28;20037;-49
2022/06/25 02:07:38;;;;;;;22.08;19.17;;;17.80;99.90;;;;;;5075584;28;20576;-47
2022/06/25 02:10:05;;;;;;;22.73;20.35;;;17.80;99.90;;;;;;5074169;28;20040;-51
2022/06/25 02:12:31;;;;;;;20.50;18.40;;;17.90;99.90;;;;;;5073781;28;20060;-47
2022/06/25 02:14:56;;;;;;;20.25;18.15;;;17.80;99.90;;;;;;5075595;28;20041;-47
2022/06/25 02:17:22;;;;;;;20.23;18.17;;;17.60;99.90;;;;;;5075102;28;20360;-49
2022/06/25 02:19:48;;;;;;;19.52;17.50;;;17.70;99.90;;;;;;5075244;28;20497;-52
2022/06/25 02:22:14;;;;;;;20.75;18.63;;;17.70;99.90;;;;;;5074802;28;20452;-51
2022/06/25 02:24:44;;;;;;;19.95;17.45;;;17.70;99.90;;;;;;5074882;28;20037;-48
2022/06/25 02:27:10;;;;;;;19.92;17.83;;;17.70;99.90;;;;;;5074848;28;20479;-48
2022/06/25 02:29:36;;;;;;;18.63;16.85;;;17.70;99.90;;;;;;5074901;28;20094;-51
2022/06/25 02:32:03;;;;;;;20.92;18.70;;;17.80;99.90;;;;;;5074831;28;20041;-49
2022/06/25 02:34:28;;;;;;;19.13;17.15;;;17.60;99.90;;;;;;5074844;28;20076;-49
2022/06/25 02:36:54;;;;;;;17.75;16.05;;;17.60;99.90;;;;;;5074751;28;20068;-48
2022/06/25 02:39:20;;;;;;;19.05;17.15;;;17.60;99.90;;;;;;5074722;28;20070;-51
2022/06/25 02:41:46;;;;;;;21.08;18.70;;;17.60;99.90;;;;;;5075006;28;20538;-50
2022/06/25 02:44:11;;;;;;;17.98;16.38;;;17.60;99.90;;;;;;5073511;28;20083;-51
2022/06/25 02:46:37;;;;;;;17.25;15.68;;;17.60;99.90;;;;;;5074408;28;20051;-47
2022/06/25 02:49:03;;;;;;;22.05;19.30;;;17.60;99.90;;;;;;5073502;28;20036;-50
2022/06/25 02:51:29;;;;;;;19.00;17.33;;;17.60;99.90;;;;;;5074480;28;20500;-47
2022/06/25 02:53:57;;;;;;;18.98;16.98;;;17.50;99.90;;;;;;5074393;28;20090;-47
2022/06/25 02:59:08;;;;;;;18.80;16.85;;;17.50;99.90;;;;;;5074359;28;20051;-46
2022/06/25 03:01:34;;;;;;;16.08;14.70;;;17.50;99.90;;;;;;5074327;28;20432;-50
2022/06/25 03:03:59;;;;;;;18.00;14.60;;;17.50;99.90;;;;;;5074376;28;20040;-48
2022/06/25 03:06:25;;;;;;;17.00;15.18;;;17.50;99.90;;;;;;5075005;28;20608;-48
2022/06/25 03:08:51;;;;;;;17.55;15.65;;;17.40;99.90;;;;;;5074421;28;20501;-51
2022/06/25 03:11:18;;;;;;;17.30;14.82;;;17.30;99.90;;;;;;5074088;28;20121;-52
2022/06/25 03:13:43;;;;;;;17.13;15.38;;;17.60;99.90;;;;;;5074389;28;20037;-48
2022/06/25 03:16:10;;;;;;;17.67;14.63;;;17.40;99.90;;;;;;5073719;28;20043;-48
2022/06/25 03:18:36;;;;;;;15.40;13.88;;;17.30;99.90;;;;;;5073986;28;20394;-51
2022/06/25 03:21:02;;;;;;;15.15;13.68;;;17.50;99.90;;;;;;5074211;28;20056;-48
2022/06/25 03:23:28;;;;;;;16.98;14.45;;;17.40;99.90;;;;;;5074030;28;20490;-48
2022/06/25 03:25:54;;;;;;;16.40;14.70;;;17.40;99.90;;;;;;5073957;28;20048;-53
2022/06/25 03:28:20;;;;;;;16.52;14.93;;;17.30;99.90;;;;;;5073896;28;20036;-49
2022/06/25 03:30:46;;;;;;;16.30;14.73;;;17.40;99.90;;;;;;5073500;28;20049;-48
2022/06/25 03:33:12;;;;;;;15.25;13.85;;;17.30;99.90;;;;;;5073784;28;20029;-46
2022/06/25 03:35:38;;;;;;;15.18;13.77;;;17.30;99.90;;;;;;5073783;28;20068;-52
2022/06/25 03:38:04;;;;;;;15.55;13.95;;;17.30;99.90;;;;;;5072266;28;20076;-47
2022/06/25 03:40:29;;;;;;;15.50;14.00;;;17.20;99.90;;;;;;5073754;28;20040;-47
2022/06/25 03:42:55;;;;;;;15.57;13.98;;;17.30;99.90;;;;;;5073538;28;20046;-46
2022/06/25 03:45:21;;;;;;;15.10;13.45;;;17.30;99.90;;;;;;5073657;28;20413;-48
2022/06/25 03:47:52;;;;;;;15.68;13.93;;;17.20;99.90;;;;;;5073276;28;20075;-49
2022/06/25 03:50:20;;;;;;;14.48;13.07;;;17.40;99.90;;;;;;5073357;28;20040;-47
2022/06/25 03:52:47;;;;;;;14.60;13.10;;;17.20;99.90;;;;;;5073363;28;20483;-48
2022/06/25 03:55:14;;;;;;;12.90;11.63;;;17.30;99.90;;;;;;5073574;28;20046;-48
2022/06/25 03:57:40;;;;;;;16.55;12.80;;;17.20;99.90;;;;;;5073571;28;20032;-51
2022/06/25 04:00:07;;;;;;;14.25;12.95;;;17.30;99.90;;;;;;5073388;28;20041;-49
2022/06/25 04:02:33;;;;;;;13.50;12.30;;;17.30;99.90;;;;;;5073229;28;20040;-49
2022/06/25 04:04:59;;;;;;;13.48;12.20;;;17.30;99.90;;;;;;5073232;28;20094;-48
2022/06/25 04:07:25;;;;;;;15.73;12.07;;;17.40;99.90;;;;;;5072986;28;20120;-50
2022/06/25 04:09:50;;;;;;;12.35;11.15;;;17.30;99.90;;;;;;5073009;28;20115;-46
2022/06/25 04:12:16;;;;;;;13.43;11.95;;;17.30;99.90;;;;;;5073037;28;20051;-48
2022/06/25 04:14:42;;;;;;;13.43;11.98;;;17.50;99.90;;;;;;5072903;28;20113;-48
2022/06/25 04:17:08;;;;;;;11.68;10.65;;;17.40;99.90;;;;;;5073316;28;20045;-49
2022/06/25 04:19:40;;;;;;;13.02;11.40;;;17.40;99.90;;;;;;5072678;28;20502;-48
2022/06/25 04:22:09;;;;;;;13.35;11.35;;;17.30;99.90;;;;;;5072478;28;20040;-50
2022/06/25 04:24:36;;;;;;;14.10;11.77;;;17.40;99.90;;;;;;5072614;28;20041;-46
2022/06/25 04:27:02;;;;;;;15.10;11.45;;;17.40;99.90;;;;;;5072521;28;20040;-51
2022/06/25 04:29:29;;;;;;;12.68;11.50;;;17.30;99.90;;;;;;5072078;28;20063;-51
2022/06/25 04:31:55;;;;;;;13.07;11.88;;;17.50;99.90;;;;;;5072621;28;20053;-50
2022/06/25 04:34:20;;;;;;;12.20;10.90;;;17.40;99.90;;;;;;5072736;28;20067;-48
2022/06/25 04:36:46;;;;;;;12.77;11.43;;;17.40;99.90;;;;;;5072490;28;20106;-46
2022/06/25 04:39:12;;;;;;;13.57;11.73;;;17.50;99.90;;;;;;5072387;28;20036;-50
2022/06/25 04:41:37;;;;;;;14.55;11.00;;;17.50;99.90;;;;;;5072740;28;20071;-49
2022/06/25 04:44:03;;;;;;;11.65;10.55;;;17.60;99.90;;;;;;5072494;28;20133;-48
2022/06/25 04:46:29;;;;;;;11.48;10.25;;;17.50;99.90;;;;;;5072516;28;20368;-47
2022/06/25 04:48:58;;;;;;;11.57;10.43;;;17.60;99.90;;;;;;5072703;28;20044;-48
2022/06/25 04:51:24;;;;;;;;;;;17.60;99.90;;;;;;5072595;28;20037;-46
2022/06/25 04:53:56;;;;;;;11.65;10.25;;;17.60;99.90;;;;;;5072336;28;20293;-49
2022/06/25 04:56:26;;;;;;;11.88;10.68;;;17.70;99.90;;;;;;5072120;28;20044;-48
2022/06/25 04:58:52;;;;;;;11.52;10.43;;;17.70;99.90;;;;;;5072344;28;20033;-50
2022/06/25 05:01:18;;;;;;;11.48;10.27;;;17.80;99.90;;;;;;5072104;28;20532;-47
2022/06/25 05:03:44;;;;;;;11.82;10.63;;;17.70;99.90;;;;;;5072103;28;20051;-46
2022/06/25 05:06:10;;;;;;;12.15;9.65;;;17.80;99.90;;;;;;5072466;28;20033;-46
2022/06/25 05:08:36;;;;;;;10.52;9.50;;;17.90;99.90;;;;;;5072199;28;20070;-49
2022/06/25 05:11:01;;;;;;;11.40;10.35;;;17.90;99.90;;;;;;5072235;28;20045;-47
2022/06/25 05:13:27;;;;;;;13.57;9.52;;;17.90;99.90;;;;;;5072116;28;20115;-46
2022/06/25 05:15:53;;;;;;;10.85;9.85;;;17.90;99.90;;;;;;5072089;28;20036;-47
2022/06/25 05:18:19;;;;;;;11.20;10.00;;;18.00;99.90;;;;;;5072133;28;20036;-51
2022/06/25 05:20:45;;;;;;;11.05;9.88;;;18.00;99.90;;;;;;5071949;28;20043;-52
2022/06/25 05:23:12;;;;;;;11.65;9.88;;;18.10;99.90;;;;;;5072079;28;20044;-49
2022/06/25 05:25:38;;;;;;;10.75;9.32;;;18.10;99.90;;;;;;5071730;28;20075;-51
2022/06/25 05:28:04;;;;;;;10.55;9.45;;;18.10;99.90;;;;;;5072097;28;20059;-49
2022/06/25 05:30:30;;;;;;;10.57;9.55;;;18.30;99.90;;;;;;5071660;28;20053;-49
2022/06/25 05:32:56;;;;;;;12.02;9.65;;;18.40;99.90;;;;;;5070913;28;20572;-50
2022/06/25 05:35:22;;;;;;;9.80;8.50;;;18.40;99.90;;;;;;5071936;28;20391;-47
2022/06/25 05:37:48;;;;;;;12.75;9.13;;;18.30;99.90;;;;;;5071681;28;20036;-45
2022/06/25 05:40:13;;;;;;;11.32;8.88;;;18.40;99.90;;;;;;5074417;28;20041;-46
2022/06/25 05:42:39;;;;;;;11.27;8.20;;;18.50;99.90;;;;;;5075579;28;20436;-51
2022/06/25 05:45:05;;;;;;;11.63;8.68;;;18.50;99.90;;;;;;5075755;28;20045;-48
2022/06/25 05:47:31;;;;;;;11.52;8.65;;;18.70;99.90;;;;;;5075715;28;20493;-48
2022/06/25 05:49:57;;;;;;;10.02;8.60;;;18.60;99.90;;;;;;5075876;28;20037;-46
2022/06/25 05:52:22;;;;;;;10.25;8.68;;;18.60;99.90;;;;;;5075359;28;20044;-50
2022/06/25 05:54:48;;;;;;;13.52;8.65;;;18.80;99.90;;;;;;5075530;28;20051;-51
2022/06/25 05:57:14;;;;;;;9.48;8.40;;;18.90;99.90;;;;;;5075680;28;20554;-51
2022/06/25 05:59:40;;;;;;;8.82;7.93;;;18.90;99.90;;;;;;5074316;28;20052;-47
2022/06/25 06:02:07;;;;;;;9.77;8.68;;;19.00;99.90;;;;;;5075531;28;20040;-52
2022/06/25 06:04:32;;;;;;;10.73;8.18;;;19.10;99.90;;;;;;5075279;28;20499;-49
2022/06/25 06:07:00;;;;;;;10.88;7.82;;;19.20;99.90;;;;;;5075400;28;20091;-47
2022/06/25 06:09:27;;;;;;;10.48;8.02;;;19.30;99.90;;;;;;5075444;28;20373;-52
2022/06/25 06:11:56;;;;;;;9.93;7.45;;;19.40;99.90;;;;;;5075356;28;20046;-47
2022/06/25 06:14:22;;;;;;;8.38;7.38;;;19.40;99.90;;;;;;5075650;28;20047;-48
2022/06/25 06:16:49;;;;;;;9.20;7.45;;;19.50;99.90;;;;;;5075221;28;20394;-50
2022/06/25 06:19:14;;;;;;;8.38;6.78;;;19.70;99.90;;;;;;5075115;28;20093;-46
2022/06/25 06:21:41;;;;;;;9.32;6.88;;;19.80;99.90;;;;;;5075003;28;20041;-51
2022/06/25 06:24:09;;;;;;;8.55;7.47;;;19.90;99.90;;;;;;5074844;28;20044;-51
2022/06/25 06:26:35;;;;;;;9.93;7.38;;;20.00;99.90;;;;;;5075033;28;20068;-48
2022/06/25 06:29:01;;;;;;;8.77;7.40;;;20.10;99.90;;;;;;5074798;28;20087;-50
2022/06/25 06:31:27;;;;;;;20.23;6.88;;;20.20;99.90;;;;;;5074755;28;20127;-49
2022/06/25 06:33:53;;;;;;;9.90;7.00;;;20.20;99.90;;;;;;5074875;28;20068;-50
2022/06/25 06:36:19;;;;;;;8.93;6.78;;;20.30;99.90;;;;;;5074627;28;20129;-49
2022/06/25 06:38:44;;;;;;;9.45;6.05;;;20.40;99.90;;;;;;5074980;28;20363;-52
2022/06/25 06:41:11;;;;;;;8.75;6.97;;;20.50;99.90;;;;;;5074810;28;20040;-46
2022/06/25 06:43:37;;;;;;;7.50;6.20;;;20.60;99.90;;;;;;5074987;28;20048;-48
2022/06/25 06:46:03;;;;;;;7.88;6.38;;;20.70;99.90;;;;;;5074532;28;20116;-48
2022/06/25 06:48:28;;;;;;;21.70;6.78;;;20.90;99.90;;;;;;5074829;28;20467;-48
2022/06/25 06:50:54;;;;;;;9.02;6.50;;;21.00;99.90;;;;;;5073621;28;20051;-49
2022/06/25 06:53:21;;;;;;;7.93;6.03;;;21.10;99.90;;;;;;5074751;28;20028;-49
2022/06/25 06:55:47;;;;;;;7.40;5.93;;;21.30;99.90;;;;;;5073493;28;20398;-50
2022/06/25 06:58:13;;;;;;;8.05;5.40;;;21.50;99.90;;;;;;5074601;28;20048;-50
2022/06/25 07:00:38;;;;;;;8.38;4.88;;;21.60;99.90;;;;;;5074337;28;20033;-46
2022/06/25 07:03:04;;;;;;;6.05;5.32;;;21.70;99.90;;;;;;5073262;28;20056;-49
2022/06/25 07:05:30;;;;;;;6.55;4.80;;;21.60;99.90;;;;;;5074396;28;20040;-51
2022/06/25 07:07:55;;;;;;;11.27;5.75;;;21.80;99.90;;;;;;5072687;28;20052;-52
2022/06/25 07:10:21;;;;;;;7.63;5.15;;;22.00;99.90;;;;;;5074227;28;20372;-49
2022/06/25 07:12:48;;;;;;;7.55;5.32;;;22.00;99.90;;;;;;5074068;28;20119;-49
2022/06/25 07:15:13;;;;;;;7.88;4.43;;;22.30;99.90;;;;;;5073932;28;20047;-50
2022/06/25 07:17:39;;;;;;;6.13;4.68;;;22.30;99.90;;;;;;5074087;28;20036;-47
2022/06/25 07:20:06;;;;;;;6.90;4.65;;;22.50;99.90;;;;;;5074047;28;20120;-49
2022/06/25 07:22:32;;;;;;;10.15;4.40;;;22.70;99.90;;;;;;5074088;28;20051;-51
2022/06/25 07:24:58;;;;;;;7.22;4.47;;;22.80;99.90;;;;;;5073758;28;20036;-50
2022/06/25 07:27:23;;;;;;;6.50;5.07;;;23.00;99.90;;;;;;5073704;28;20040;-51
2022/06/25 07:29:49;;;;;;;8.27;4.43;;;23.00;99.90;;;;;;5073596;28;20135;-47
2022/06/25 07:32:15;;;;;;;4.97;3.60;;;23.10;99.90;;;;;;5072116;28;20080;-50
2022/06/25 07:34:40;;;;;;;5.30;3.38;;;23.20;99.90;;;;;;5073447;28;20036;-48
2022/06/25 07:37:06;;;;;;;6.25;3.70;;;23.40;99.90;;;;;;5072456;28;20040;-49
2022/06/25 07:39:32;;;;;;;6.45;3.63;;;23.30;99.90;;;;;;5073580;28;20078;-49
2022/06/25 07:41:58;;;;;;;6.35;3.35;;;23.40;99.90;;;;;;5073595;28;20044;-50
2022/06/25 07:44:24;;;;;;;6.55;3.10;;;23.60;99.90;;;;;;5073470;28;20043;-50
2022/06/25 07:46:49;;;;;;;6.10;3.95;;;23.60;99.90;;;;;;5073227;28;20471;-51
2022/06/25 07:49:15;;;;;;;6.45;2.95;;;23.60;99.90;;;;;;5073271;28;20036;-50
2022/06/25 07:51:56;;;;;;;5.47;2.97;;;23.80;99.90;;;;;;5073441;28;20058;-51
2022/06/25 07:54:22;;;;;;;5.00;2.95;;;24.10;99.90;;;;;;5073400;28;20040;-52
2022/06/25 07:56:48;;;;;;;4.82;2.63;;;24.20;99.90;;;;;;5073070;28;20040;-51
2022/06/25 07:59:14;;;;;;;5.80;2.47;;;24.40;99.90;;;;;;5071745;28;20041;-52
2022/06/25 08:01:39;;;;;;;7.25;2.50;;;24.50;99.90;;;;;;5073109;28;20043;-52
2022/06/25 08:04:05;;;;;;;5.78;2.20;;;24.50;99.90;;;;;;5071884;28;20040;-53
2022/06/25 08:06:34;;;;;;;6.72;2.70;;;24.70;99.90;;;;;;5073221;28;20041;-49
2022/06/25 08:09:01;;;;;;;4.72;2.20;;;24.50;99.90;;;;;;5072959;28;20055;-51
2022/06/25 08:11:26;;;;;;;2.83;1.70;;;24.70;99.90;;;;;;5071561;28;20387;-51
2022/06/25 08:13:52;;;;;;;7.20;1.95;;;25.10;99.90;;;;;;5072865;28;20069;-50
2022/06/25 08:16:18;;;;;;;4.50;1.80;;;25.00;99.90;;;;;;5072791;28;20033;-53
2022/06/25 08:18:43;;;;;;;5.90;2.42;;;25.10;99.90;;;;;;5072720;28;20079;-54
2022/06/25 08:21:09;;;;;;;2.72;1.75;;;25.50;99.90;;;;;;5072961;28;20032;-54
2022/06/25 08:23:34;;;;;;;8.57;2.10;;;25.60;99.90;;;;;;5072812;28;20047;-53
2022/06/25 08:26:00;;;;;;;5.40;1.50;;;26.00;99.90;;;;;;5072672;28;20083;-52
2022/06/25 08:28:26;;;;;;;3.03;1.95;;;26.30;99.90;;;;;;5073050;28;20042;-49
2022/06/25 08:30:51;;;;;;;6.78;2.08;;;26.00;99.90;;;;;;5072377;28;20134;-52
2022/06/25 08:33:17;;;;;;;5.25;2.13;;;25.60;99.90;;;;;;5072714;28;20082;-50
2022/06/25 08:35:43;;;;;;;6.00;2.15;;;26.20;99.90;;;;;;5072387;28;20494;-53
2022/06/25 08:38:09;;;;;;;4.03;1.92;;;26.40;99.90;;;;;;5072546;28;20124;-51
2022/06/25 08:40:34;;;;;;;6.57;2.50;;;26.60;99.90;;;;;;5072330;28;20035;-54
2022/06/25 08:43:00;;;;;;;3.85;1.98;;;26.20;99.90;;;;;;5072443;28;20037;-52
2022/06/25 08:45:26;;;;;;;4.32;1.77;;;25.70;99.90;;;;;;5072261;28;20032;-49
2022/06/25 08:47:52;;;;;;;3.72;2.03;;;25.50;99.90;;;;;;5072068;28;20078;-53
2022/06/25 08:50:21;;;;;;;5.32;1.90;;;25.30;99.90;;;;;;5071094;28;20079;-50
2022/06/25 08:52:51;;;;;;;4.00;1.83;;;25.00;99.90;;;;;;5072287;28;20080;-49
2022/06/25 08:55:38;;;;;;;3.33;1.65;;;24.70;99.90;;;;;;5072194;28;20029;-51
2022/06/25 08:58:05;;;;;;;5.28;1.75;;;24.70;99.90;;;;;;5072022;28;20071;-53
2022/06/25 09:00:35;;;;;;;4.38;2.25;;;24.70;99.90;;;;;;5072061;28;20509;-49
2022/06/25 09:03:01;;;;;;;4.63;1.80;;;24.80;99.90;;;;;;5072180;28;20044;-50
2022/06/25 09:05:35;;;;;;;4.32;2.00;;;24.90;99.90;;;;;;5070774;28;20078;-50
2022/06/25 09:08:05;;;;;;;6.47;2.20;;;24.80;99.90;;;;;;5071953;28;20505;-53
2022/06/25 09:10:32;;;;;;;4.82;2.33;;;24.90;99.90;;;;;;5071752;28;20497;-45
2022/06/25 09:13:01;;;;;;;5.13;2.17;;;24.70;99.90;;;;;;5072319;28;20425;-47
2022/06/25 09:15:29;;;;;;;5.93;2.53;;;24.70;99.90;;;;;;5071696;28;20479;-48
2022/06/25 09:17:55;;;;;;;3.88;2.30;;;24.80;99.90;;;;;;5072160;28;20032;-48
2022/06/25 09:20:22;;;;;;;6.50;2.63;;;24.80;99.90;;;;;;5071951;28;20046;-51
2022/06/25 09:22:57;;;;;;;4.40;2.05;;;24.70;99.90;;;;;;5072013;28;20082;-49
2022/06/25 09:25:32;;;;;;;5.78;2.58;;;24.70;99.90;;;;;;5072166;28;20094;-49
2022/06/25 09:27:58;;;;;;;4.75;2.15;;;24.50;99.90;;;;;;5071908;28;20052;-50
2022/06/25 09:30:29;;;;;;;5.35;2.65;;;24.40;99.90;;;;;;5071475;28;20053;-51
2022/06/25 09:32:56;;;;;;;6.85;3.03;;;24.30;99.90;;;;;;5071744;28;20052;-51
2022/06/25 09:35:55;;;;;;;3.60;2.22;;;24.20;99.90;;;;;;5071837;28;20033;-50
2022/06/25 09:38:21;;;;;;;3.53;1.60;;;24.30;99.90;;;;;;5033025;28;20060;-51
2022/06/25 09:40:57;;;;;;;7.78;2.05;;;24.50;99.90;;;;;;5049422;28;20045;-52
2022/06/25 09:43:26;;;;;;;6.40;1.80;;;24.70;99.90;;;;;;5049471;28;20041;-52
2022/06/25 09:45:54;;;;;;;4.15;1.63;;;24.80;99.90;;;;;;5032447;28;20459;-49
2022/06/25 09:48:25;;;;;;;4.30;1.65;;;24.90;99.90;;;;;;5049395;28;20055;-52
2022/06/25 09:51:12;;;;;;;3.65;1.67;;;25.00;99.90;;;;;;5032714;28;20037;-52
2022/06/25 09:53:47;;;;;;;4.25;1.70;;;25.10;99.90;;;;;;5048221;28;20060;-52
2022/06/25 09:56:15;;;;;;;6.60;1.60;;;25.40;99.90;;;;;;5049587;28;20057;-53
2022/06/25 09:58:42;;;;;;;5.82;1.67;;;25.30;99.90;;;;;;5049629;28;20479;-51
2022/06/25 10:01:09;;;;;;;5.47;2.00;;;25.40;99.90;;;;;;5049425;28;20159;-52
2022/06/25 10:03:36;;;;;;;3.05;1.40;;;25.20;99.90;;;;;;5049463;28;20036;-50
2022/06/25 10:06:02;;;;;;;3.93;1.47;;;25.30;99.90;;;;;;5049324;28;20041;-52
2022/06/25 10:08:30;;;;;;;4.75;1.83;;;25.10;99.90;;;;;;5049430;28;20294;-51
2022/06/25 10:10:56;;;;;;;4.70;1.40;;;25.10;99.90;;;;;;5049235;28;20071;-51
2022/06/25 10:13:22;;;;;;;6.30;1.63;;;25.00;99.90;;;;;;5055496;28;20049;-52
2022/06/25 10:15:49;;;;;;;2.47;1.48;;;25.10;99.90;;;;;;5053668;28;20471;-52
2022/06/25 10:18:15;;;;;;;2.75;1.85;;;25.10;99.90;;;;;;5071385;28;20036;-50
2022/06/25 10:20:42;;;;;;;3.10;1.42;;;25.00;99.90;;;;;;5071146;28;20046;-51
2022/06/25 10:23:10;;;;;;;2.05;1.10;;;25.00;99.90;;;;;;5071089;28;20557;-52
2022/06/25 10:25:36;;;;;;;2.83;1.30;;;25.00;99.90;;;;;;5071317;28;20116;-48
2022/06/25 10:28:15;;;;;;;3.35;1.40;;;24.90;99.90;;;;;;5075151;28;20259;-50
2022/06/25 10:30:44;;;;;;;;;;;25.00;99.90;;;;;;5075328;28;20402;-51
2022/06/25 10:33:11;;;;;;;5.33;1.60;;;25.00;99.90;;;;;;5074921;28;19970;-51
2022/06/25 10:35:39;;;;;;;2.50;1.40;;;24.80;99.90;;;;;;5074872;28;20741;-49
2022/06/25 10:38:11;;;;;;;4.30;1.67;;;24.80;99.90;;;;;;5074665;28;20037;-52
2022/06/25 10:40:47;;;;;;;2.80;1.40;;;24.60;99.90;;;;;;5074863;28;20052;-50
2022/06/25 10:43:40;;;;;;;3.20;1.42;;;24.60;99.90;;;;;;5074874;28;20089;-50
2022/06/25 10:46:24;;;;;;;1.60;1.27;;;24.50;99.90;;;;;;5074666;28;20043;-50
2022/06/25 10:49:12;;;;;;;3.28;1.55;;;24.30;99.90;;;;;;5073220;28;20084;-49
2022/06/25 10:51:43;;;;;;;4.18;1.60;;;24.40;99.90;;;;;;5074584;28;20123;-48
2022/06/25 10:54:13;;;;;;;2.05;1.27;;;24.30;99.90;;;;;;5074359;28;20040;-49
2022/06/25 10:56:46;;;;;;;5.60;1.75;;;24.30;99.90;;;;;;5073250;28;20055;-49
2022/06/25 10:59:32;;;;;;;2.92;1.30;;;24.10;99.90;;;;;;5074718;28;20114;-51
2022/06/25 11:01:59;;;;;;;5.43;1.20;;;24.10;99.90;;;;;;5074278;28;20044;-48
2022/06/25 11:04:29;;;;;;;2.35;1.45;;;24.00;99.90;;;;;;5071526;28;20032;-51
2022/06/25 11:07:14;;;;;;;4.63;2.13;;;23.90;99.90;;;;;;5074243;28;20076;-51
2022/06/25 11:09:55;;;;;;;7.50;1.90;;;23.80;99.90;;;;;;5074445;28;20051;-48
2022/06/25 11:12:21;;;;;;;3.85;1.70;;;23.60;99.90;;;;;;5074247;28;20040;-48
2022/06/25 11:14:50;;;;;;;5.03;1.42;;;23.60;99.90;;;;;;5074322;28;20037;-47
2022/06/25 11:17:15;;;;;;;;;;;23.40;99.90;;;;;;5074353;28;20079;-48
2022/06/25 11:19:42;;;;;;;2.35;1.10;;;23.40;99.90;;;;;;5074337;28;19968;-47
2022/06/25 11:22:08;;;;;;;7.70;1.42;;;23.20;99.90;;;;;;5073968;28;20098;-51
2022/06/25 11:24:33;;;;;;;3.72;1.30;;;23.10;99.90;;;;;;5074148;28;20052;-48
2022/06/25 11:29:54;;;;;;;9.70;1.35;;;23.00;99.90;;;;;;5073777;28;20142;-52
2022/06/25 11:32:28;;;;;;;4.53;1.20;;;23.00;99.90;;;;;;5073594;28;20032;-51
2022/06/25 11:34:59;;;;;;;3.33;1.60;;;23.00;99.90;;;;;;5073808;28;20028;-50
2022/06/25 11:37:26;;;;;;;3.22;1.20;;;23.00;99.90;;;;;;5073711;28;20055;-48
2022/06/25 11:39:52;;;;;;;2.38;1.50;;;23.10;99.90;;;;;;5073963;28;20028;-50
2022/06/25 11:42:19;;;;;;;2.83;1.17;;;23.10;99.90;;;;;;5073491;28;20086;-47
2022/06/25 11:44:53;;;;;;;5.07;1.10;;;23.30;99.90;;;;;;5073390;28;20041;-50
2022/06/25 11:47:25;;;;;;;2.67;1.50;;;23.40;99.90;;;;;;5073768;28;20079;-48
2022/06/25 11:49:52;;;;;;;3.80;1.52;;;23.80;99.90;;;;;;5073578;28;20040;-51
2022/06/25 11:52:23;;;;;;;1.83;1.00;;;24.10;99.90;;;;;;5073402;28;20029;-50
2022/06/25 11:54:51;;;;;;;1.27;0.95;;;24.30;99.90;;;;;;5073331;28;20118;-50
2022/06/25 11:57:22;;;;;;;2.60;1.10;;;24.50;99.90;;;;;;5073356;28;20425;-50
2022/06/25 11:59:50;;;;;;;4.43;0.90;;;24.80;99.90;;;;;;5073341;28;20391;-51
2022/06/25 12:02:15;;;;;;;4.90;1.17;;;24.90;99.90;;;;;;5073632;28;20040;-52
2022/06/25 12:04:49;;;;;;;3.17;1.40;;;24.80;99.90;;;;;;5071720;28;20041;-51
2022/06/25 12:07:20;;;;;;;10.75;1.45;;;24.80;99.90;;;;;;5073219;28;20119;-50
2022/06/25 12:09:46;;;;;;;3.63;0.90;;;24.80;99.90;;;;;;5073006;28;20051;-52
2022/06/25 12:12:12;;;;;;;3.90;1.20;;;24.60;99.90;;;;;;5073156;28;20064;-51
2022/06/25 12:14:38;;;;;;;3.30;0.98;;;24.50;99.90;;;;;;5073033;28;20487;-49
2022/06/25 12:17:05;;;;;;;4.20;1.23;;;24.40;99.90;;;;;;5072917;28;20044;-47
2022/06/25 12:19:48;;;;;;;3.40;1.20;;;24.30;99.90;;;;;;5072803;28;20033;-51
2022/06/25 12:22:19;;;;;;;5.22;0.85;;;24.20;99.90;;;;;;5073057;28;20489;-48
2022/06/25 12:24:49;;;;;;;2.92;1.05;;;24.00;99.90;;;;;;5073136;28;20040;-47
2022/06/25 12:27:15;;;;;;;2.47;1.10;;;23.70;99.90;;;;;;5072639;28;20044;-47
2022/06/25 12:29:40;;;;;;;5.28;1.58;;;23.50;99.90;;;;;;5071467;28;20453;-50
2022/06/25 12:32:06;;;;;;;4.82;1.30;;;23.20;99.90;;;;;;5072631;28;20049;-51
2022/06/25 12:34:31;;;;;;;3.40;1.45;;;22.90;99.90;;;;;;5072510;28;20028;-51
2022/06/25 12:36:59;;;;;;;5.40;1.60;;;22.70;99.90;;;;;;5071285;28;20040;-49
2022/06/25 12:39:43;;;;;;;6.03;2.13;;;22.50;99.90;;;;;;5072450;28;20536;-49
2022/06/25 12:42:12;;;;;;;4.38;2.15;;;22.40;99.90;;;;;;5072716;28;20044;-51
2022/06/25 12:44:40;;;;;;;3.00;2.00;;;22.20;99.90;;;;;;5072613;28;20051;-50